sensor_id;sensor_type;location;lat;lon;timestamp;P1;durP1;ratioP1;P2;durP2;ratioP2
16304;SDS011;8261;47.678;-122.174;2023-05-10T00:01:40;3.30;;;1.27;;
16304;SDS011;8261;47.678;-122.174;2023-05-10T00:04:12;3.37;;;1.20;;
16304;SDS011;8261;47.678;-122.174;2023-05-10T00:06:43;4.20;;;1.50;;
16304;SDS011;8261;47.678;-122.174;2023-05-10T00:09:14;1.93;;;1.10;;
16304;SDS011;8261;47.678;-122.174;2023-05-10T00:11:46;2.27;;;0.90;;
16304;SDS011;8261;47.678;-122.174;2023-05-10T00:14:18;1.87;;;1.20;;
16304;SDS011;8261;47.678;-122.174;2023-05-10T00:16:52;4.00;;;1.20;;
16304;SDS011;8261;47.678;-122.174;2023-05-10T00:19:24;3.33;;;1.23;;
16304;SDS011;8261;47.678;-122.174;2023-05-10T00:21:55;2.57;;;1.40;;
16304;SDS011;8261;47.678;-122.174;2023-05-10T00:24:26;3.97;;;1.40;;
16304;SDS011;8261;47.678;-122.174;2023-05-10T00:26:58;3.30;;;1.13;;
16304;SDS011;8261;47.678;-122.174;2023-05-10T00:29:31;1.90;;;1.20;;
16304;SDS011;8261;47.678;-122.174;2023-05-10T00:32:04;3.73;;;1.30;;
16304;SDS011;8261;47.678;-122.174;2023-05-10T00:34:36;2.57;;;1.10;;
16304;SDS011;8261;47.678;-122.174;2023-05-10T00:37:08;3.03;;;1.27;;
16304;SDS011;8261;47.678;-122.174;2023-05-10T00:39:43;2.33;;;1.00;;
16304;SDS011;8261;47.678;-122.174;2023-05-10T00:42:14;1.10;;;0.90;;
16304;SDS011;8261;47.678;-122.174;2023-05-10T00:44:45;1.47;;;1.00;;
16304;SDS011;8261;47.678;-122.174;2023-05-10T00:47:21;2.00;;;1.07;;
16304;SDS011;8261;47.678;-122.174;2023-05-10T00:49:53;0.83;;;0.70;;
16304;SDS011;8261;47.678;-122.174;2023-05-10T00:52:25;1.60;;;0.90;;
16304;SDS011;8261;47.678;-122.174;2023-05-10T00:54:56;2.73;;;1.00;;
16304;SDS011;8261;47.678;-122.174;2023-05-10T00:57:29;2.87;;;1.00;;
16304;SDS011;8261;47.678;-122.174;2023-05-10T01:00:00;2.57;;;0.80;;
16304;SDS011;8261;47.678;-122.174;2023-05-10T01:02:35;0.97;;;0.90;;
16304;SDS011;8261;47.678;-122.174;2023-05-10T01:05:06;1.57;;;0.90;;
16304;SDS011;8261;47.678;-122.174;2023-05-10T01:07:38;3.57;;;0.90;;
16304;SDS011;8261;47.678;-122.174;2023-05-10T01:10:10;2.60;;;1.00;;
16304;SDS011;8261;47.678;-122.174;2023-05-10T01:12:43;1.27;;;0.80;;
16304;SDS011;8261;47.678;-122.174;2023-05-10T01:15:17;3.30;;;0.87;;
16304;SDS011;8261;47.678;-122.174;2023-05-10T01:17:52;2.87;;;0.90;;
16304;SDS011;8261;47.678;-122.174;2023-05-10T01:20:24;1.93;;;0.97;;
16304;SDS011;8261;47.678;-122.174;2023-05-10T01:23:07;0.90;;;0.80;;
16304;SDS011;8261;47.678;-122.174;2023-05-10T01:32:12;2.73;;;0.90;;
16304;SDS011;8261;47.678;-122.174;2023-05-10T01:34:54;1.60;;;0.90;;
16304;SDS011;8261;47.678;-122.174;2023-05-10T01:37:33;1.77;;;0.80;;
16304;SDS011;8261;47.678;-122.174;2023-05-10T01:40:13;1.40;;;0.90;;
16304;SDS011;8261;47.678;-122.174;2023-05-10T01:42:59;0.90;;;0.70;;
16304;SDS011;8261;47.678;-122.174;2023-05-10T01:45:35;2.23;;;0.80;;
16304;SDS011;8261;47.678;-122.174;2023-05-10T01:48:14;2.37;;;0.80;;
16304;SDS011;8261;47.678;-122.174;2023-05-10T01:50:47;4.33;;;0.77;;
16304;SDS011;8261;47.678;-122.174;2023-05-10T01:53:21;1.10;;;0.60;;
16304;SDS011;8261;47.678;-122.174;2023-05-10T01:55:54;1.53;;;0.73;;
16304;SDS011;8261;47.678;-122.174;2023-05-10T01:58:27;2.93;;;1.10;;
16304;SDS011;8261;47.678;-122.174;2023-05-10T02:01:01;1.20;;;0.60;;
16304;SDS011;8261;47.678;-122.174;2023-05-10T02:03:38;1.10;;;0.70;;
16304;SDS011;8261;47.678;-122.174;2023-05-10T02:06:10;1.73;;;0.70;;
16304;SDS011;8261;47.678;-122.174;2023-05-10T02:08:45;2.47;;;0.80;;
16304;SDS011;8261;47.678;-122.174;2023-05-10T02:11:17;2.10;;;1.00;;
16304;SDS011;8261;47.678;-122.174;2023-05-10T02:13:50;2.30;;;0.70;;
16304;SDS011;8261;47.678;-122.174;2023-05-10T02:16:23;1.10;;;0.70;;
16304;SDS011;8261;47.678;-122.174;2023-05-10T02:19:00;0.93;;;0.77;;
16304;SDS011;8261;47.678;-122.174;2023-05-10T02:21:33;2.00;;;0.90;;
16304;SDS011;8261;47.678;-122.174;2023-05-10T02:24:06;1.33;;;0.87;;
16304;SDS011;8261;47.678;-122.174;2023-05-10T02:26:39;5.53;;;0.90;;
16304;SDS011;8261;47.678;-122.174;2023-05-10T02:29:11;1.83;;;0.80;;
16304;SDS011;8261;47.678;-122.174;2023-05-10T02:31:44;0.70;;;0.70;;
16304;SDS011;8261;47.678;-122.174;2023-05-10T02:34:18;1.17;;;0.70;;
16304;SDS011;8261;47.678;-122.174;2023-05-10T02:36:51;2.23;;;0.80;;
16304;SDS011;8261;47.678;-122.174;2023-05-10T02:39:24;2.90;;;0.70;;
16304;SDS011;8261;47.678;-122.174;2023-05-10T02:41:56;1.33;;;0.90;;
16304;SDS011;8261;47.678;-122.174;2023-05-10T02:44:29;2.20;;;0.80;;
16304;SDS011;8261;47.678;-122.174;2023-05-10T02:47:01;1.23;;;0.70;;
16304;SDS011;8261;47.678;-122.174;2023-05-10T02:49:34;2.80;;;1.20;;
16304;SDS011;8261;47.678;-122.174;2023-05-10T02:52:06;4.80;;;1.30;;
16304;SDS011;8261;47.678;-122.174;2023-05-10T02:54:39;1.53;;;0.70;;
16304;SDS011;8261;47.678;-122.174;2023-05-10T02:57:15;2.10;;;1.00;;
16304;SDS011;8261;47.678;-122.174;2023-05-10T02:59:48;1.73;;;0.70;;
16304;SDS011;8261;47.678;-122.174;2023-05-10T03:02:20;0.67;;;0.50;;
16304;SDS011;8261;47.678;-122.174;2023-05-10T03:04:54;3.90;;;0.60;;
16304;SDS011;8261;47.678;-122.174;2023-05-10T03:07:25;1.60;;;0.60;;
16304;SDS011;8261;47.678;-122.174;2023-05-10T03:09:57;1.20;;;0.80;;
16304;SDS011;8261;47.678;-122.174;2023-05-10T03:12:31;2.90;;;0.90;;
16304;SDS011;8261;47.678;-122.174;2023-05-10T03:15:11;0.80;;;0.60;;
16304;SDS011;8261;47.678;-122.174;2023-05-10T03:17:49;1.90;;;0.80;;
16304;SDS011;8261;47.678;-122.174;2023-05-10T03:20:29;2.30;;;0.80;;
16304;SDS011;8261;47.678;-122.174;2023-05-10T03:23:05;2.97;;;0.83;;
16304;SDS011;8261;47.678;-122.174;2023-05-10T03:25:54;2.73;;;1.00;;
16304;SDS011;8261;47.678;-122.174;2023-05-10T03:28:27;2.37;;;0.90;;
16304;SDS011;8261;47.678;-122.174;2023-05-10T03:30:59;3.83;;;0.90;;
16304;SDS011;8261;47.678;-122.174;2023-05-10T03:33:33;1.20;;;0.80;;
16304;SDS011;8261;47.678;-122.174;2023-05-10T03:36:08;0.70;;;0.70;;
16304;SDS011;8261;47.678;-122.174;2023-05-10T03:38:40;1.20;;;0.80;;
16304;SDS011;8261;47.678;-122.174;2023-05-10T03:41:11;1.13;;;0.90;;
16304;SDS011;8261;47.678;-122.174;2023-05-10T03:43:43;1.80;;;0.90;;
16304;SDS011;8261;47.678;-122.174;2023-05-10T03:46:15;1.67;;;0.90;;
16304;SDS011;8261;47.678;-122.174;2023-05-10T03:48:46;2.23;;;1.03;;
16304;SDS011;8261;47.678;-122.174;2023-05-10T03:51:20;1.33;;;0.87;;
16304;SDS011;8261;47.678;-122.174;2023-05-10T03:53:55;1.40;;;0.97;;
16304;SDS011;8261;47.678;-122.174;2023-05-10T03:56:26;1.77;;;0.87;;
16304;SDS011;8261;47.678;-122.174;2023-05-10T03:58:59;2.23;;;1.00;;
16304;SDS011;8261;47.678;-122.174;2023-05-10T04:01:35;2.90;;;1.07;;
16304;SDS011;8261;47.678;-122.174;2023-05-10T04:04:07;1.03;;;0.93;;
16304;SDS011;8261;47.678;-122.174;2023-05-10T04:06:40;1.43;;;0.90;;
16304;SDS011;8261;47.678;-122.174;2023-05-10T04:09:11;2.87;;;1.80;;
16304;SDS011;8261;47.678;-122.174;2023-05-10T04:11:44;3.07;;;1.83;;
16304;SDS011;8261;47.678;-122.174;2023-05-10T04:14:15;4.73;;;2.07;;
16304;SDS011;8261;47.678;-122.174;2023-05-10T04:16:47;1.73;;;1.20;;
16304;SDS011;8261;47.678;-122.174;2023-05-10T04:19:19;2.17;;;1.17;;
16304;SDS011;8261;47.678;-122.174;2023-05-10T04:21:53;3.00;;;1.23;;
16304;SDS011;8261;47.678;-122.174;2023-05-10T04:24:25;1.60;;;1.07;;
16304;SDS011;8261;47.678;-122.174;2023-05-10T04:26:57;1.00;;;0.90;;
16304;SDS011;8261;47.678;-122.174;2023-05-10T04:29:30;1.80;;;1.00;;
16304;SDS011;8261;47.678;-122.174;2023-05-10T04:32:02;2.20;;;1.07;;
16304;SDS011;8261;47.678;-122.174;2023-05-10T04:34:33;3.40;;;1.10;;
16304;SDS011;8261;47.678;-122.174;2023-05-10T04:37:07;2.77;;;1.13;;
16304;SDS011;8261;47.678;-122.174;2023-05-10T04:39:39;2.27;;;0.80;;
16304;SDS011;8261;47.678;-122.174;2023-05-10T04:42:10;1.67;;;1.13;;
16304;SDS011;8261;47.678;-122.174;2023-05-10T04:44:42;2.57;;;1.03;;
16304;SDS011;8261;47.678;-122.174;2023-05-10T04:47:15;0.80;;;0.80;;
16304;SDS011;8261;47.678;-122.174;2023-05-10T04:49:49;1.57;;;1.00;;
16304;SDS011;8261;47.678;-122.174;2023-05-10T04:52:27;2.73;;;1.30;;
16304;SDS011;8261;47.678;-122.174;2023-05-10T04:54:58;3.23;;;1.20;;
16304;SDS011;8261;47.678;-122.174;2023-05-10T04:57:30;2.27;;;1.00;;
16304;SDS011;8261;47.678;-122.174;2023-05-10T05:00:02;2.40;;;1.10;;
16304;SDS011;8261;47.678;-122.174;2023-05-10T05:02:34;3.17;;;1.30;;
16304;SDS011;8261;47.678;-122.174;2023-05-10T05:05:06;2.53;;;1.07;;
16304;SDS011;8261;47.678;-122.174;2023-05-10T05:07:40;3.50;;;0.93;;
16304;SDS011;8261;47.678;-122.174;2023-05-10T05:10:11;1.17;;;0.70;;
16304;SDS011;8261;47.678;-122.174;2023-05-10T05:12:43;4.17;;;1.10;;
16304;SDS011;8261;47.678;-122.174;2023-05-10T05:15:15;1.67;;;0.83;;
16304;SDS011;8261;47.678;-122.174;2023-05-10T05:17:47;1.93;;;0.90;;
16304;SDS011;8261;47.678;-122.174;2023-05-10T05:20:18;4.67;;;1.33;;
16304;SDS011;8261;47.678;-122.174;2023-05-10T05:22:52;1.90;;;1.03;;
16304;SDS011;8261;47.678;-122.174;2023-05-10T05:25:23;2.43;;;0.97;;
16304;SDS011;8261;47.678;-122.174;2023-05-10T05:27:55;3.30;;;1.10;;
16304;SDS011;8261;47.678;-122.174;2023-05-10T05:30:26;2.73;;;1.03;;
16304;SDS011;8261;47.678;-122.174;2023-05-10T05:32:58;1.30;;;0.97;;
16304;SDS011;8261;47.678;-122.174;2023-05-10T05:35:29;1.47;;;0.77;;
16304;SDS011;8261;47.678;-122.174;2023-05-10T05:38:03;2.13;;;0.87;;
16304;SDS011;8261;47.678;-122.174;2023-05-10T05:40:34;1.63;;;0.80;;
16304;SDS011;8261;47.678;-122.174;2023-05-10T05:43:06;2.87;;;1.00;;
16304;SDS011;8261;47.678;-122.174;2023-05-10T05:45:37;3.57;;;1.20;;
16304;SDS011;8261;47.678;-122.174;2023-05-10T05:48:09;5.67;;;1.30;;
16304;SDS011;8261;47.678;-122.174;2023-05-10T05:50:41;1.53;;;1.17;;
16304;SDS011;8261;47.678;-122.174;2023-05-10T05:53:15;3.07;;;1.30;;
16304;SDS011;8261;47.678;-122.174;2023-05-10T05:55:52;2.77;;;1.10;;
16304;SDS011;8261;47.678;-122.174;2023-05-10T05:58:25;3.53;;;1.30;;
16304;SDS011;8261;47.678;-122.174;2023-05-10T06:00:56;3.73;;;1.37;;
16304;SDS011;8261;47.678;-122.174;2023-05-10T06:03:28;3.47;;;1.23;;
16304;SDS011;8261;47.678;-122.174;2023-05-10T06:06:01;2.90;;;1.10;;
16304;SDS011;8261;47.678;-122.174;2023-05-10T06:08:36;2.20;;;1.03;;
16304;SDS011;8261;47.678;-122.174;2023-05-10T06:11:08;4.80;;;1.27;;
16304;SDS011;8261;47.678;-122.174;2023-05-10T06:13:39;2.27;;;1.20;;
16304;SDS011;8261;47.678;-122.174;2023-05-10T06:16:11;3.87;;;1.30;;
16304;SDS011;8261;47.678;-122.174;2023-05-10T06:18:43;3.07;;;1.10;;
16304;SDS011;8261;47.678;-122.174;2023-05-10T06:21:14;4.47;;;2.07;;
16304;SDS011;8261;47.678;-122.174;2023-05-10T06:23:48;7.97;;;1.50;;
16304;SDS011;8261;47.678;-122.174;2023-05-10T06:26:20;5.83;;;1.40;;
16304;SDS011;8261;47.678;-122.174;2023-05-10T06:28:53;3.73;;;1.10;;
16304;SDS011;8261;47.678;-122.174;2023-05-10T06:31:24;3.27;;;1.33;;
16304;SDS011;8261;47.678;-122.174;2023-05-10T06:33:56;4.03;;;1.77;;
16304;SDS011;8261;47.678;-122.174;2023-05-10T06:36:27;4.90;;;1.90;;
16304;SDS011;8261;47.678;-122.174;2023-05-10T06:39:02;4.87;;;1.60;;
16304;SDS011;8261;47.678;-122.174;2023-05-10T06:41:34;4.67;;;1.53;;
16304;SDS011;8261;47.678;-122.174;2023-05-10T06:44:05;4.43;;;1.60;;
16304;SDS011;8261;47.678;-122.174;2023-05-10T06:46:37;6.87;;;1.73;;
16304;SDS011;8261;47.678;-122.174;2023-05-10T06:49:10;5.20;;;1.73;;
16304;SDS011;8261;47.678;-122.174;2023-05-10T06:51:41;4.23;;;1.17;;
16304;SDS011;8261;47.678;-122.174;2023-05-10T06:54:15;2.77;;;1.30;;
16304;SDS011;8261;47.678;-122.174;2023-05-10T06:56:47;4.43;;;1.50;;
16304;SDS011;8261;47.678;-122.174;2023-05-10T06:59:19;4.63;;;1.50;;
16304;SDS011;8261;47.678;-122.174;2023-05-10T07:01:50;4.87;;;1.57;;
16304;SDS011;8261;47.678;-122.174;2023-05-10T07:04:22;4.80;;;1.30;;
16304;SDS011;8261;47.678;-122.174;2023-05-10T07:06:53;4.97;;;2.10;;
16304;SDS011;8261;47.678;-122.174;2023-05-10T07:09:31;4.27;;;1.73;;
16304;SDS011;8261;47.678;-122.174;2023-05-10T07:12:04;4.53;;;1.40;;
16304;SDS011;8261;47.678;-122.174;2023-05-10T07:14:40;6.30;;;1.83;;
16304;SDS011;8261;47.678;-122.174;2023-05-10T07:17:12;4.83;;;1.57;;
16304;SDS011;8261;47.678;-122.174;2023-05-10T07:19:44;5.83;;;1.70;;
16304;SDS011;8261;47.678;-122.174;2023-05-10T07:22:16;7.57;;;1.60;;
16304;SDS011;8261;47.678;-122.174;2023-05-10T07:24:51;7.40;;;1.53;;
16304;SDS011;8261;47.678;-122.174;2023-05-10T07:27:22;5.17;;;1.77;;
16304;SDS011;8261;47.678;-122.174;2023-05-10T07:29:54;7.00;;;1.77;;
16304;SDS011;8261;47.678;-122.174;2023-05-10T07:32:25;4.93;;;1.40;;
16304;SDS011;8261;47.678;-122.174;2023-05-10T07:34:57;3.43;;;1.70;;
16304;SDS011;8261;47.678;-122.174;2023-05-10T07:37:29;2.70;;;1.20;;
16304;SDS011;8261;47.678;-122.174;2023-05-10T07:40:02;6.20;;;2.07;;
16304;SDS011;8261;47.678;-122.174;2023-05-10T07:42:34;4.87;;;1.83;;
16304;SDS011;8261;47.678;-122.174;2023-05-10T07:45:07;4.83;;;2.03;;
16304;SDS011;8261;47.678;-122.174;2023-05-10T07:47:39;3.70;;;1.67;;
16304;SDS011;8261;47.678;-122.174;2023-05-10T07:50:10;4.30;;;1.57;;
16304;SDS011;8261;47.678;-122.174;2023-05-10T07:52:42;4.60;;;1.87;;
16304;SDS011;8261;47.678;-122.174;2023-05-10T07:55:16;5.07;;;1.77;;
16304;SDS011;8261;47.678;-122.174;2023-05-10T07:57:49;4.57;;;1.60;;
16304;SDS011;8261;47.678;-122.174;2023-05-10T08:00:20;4.33;;;1.40;;
16304;SDS011;8261;47.678;-122.174;2023-05-10T08:02:52;5.27;;;1.60;;
16304;SDS011;8261;47.678;-122.174;2023-05-10T08:05:23;3.27;;;1.20;;
16304;SDS011;8261;47.678;-122.174;2023-05-10T08:07:54;5.37;;;1.33;;
16304;SDS011;8261;47.678;-122.174;2023-05-10T08:10:29;4.67;;;1.53;;
16304;SDS011;8261;47.678;-122.174;2023-05-10T08:13:01;4.97;;;1.63;;
16304;SDS011;8261;47.678;-122.174;2023-05-10T08:15:36;3.67;;;1.40;;
16304;SDS011;8261;47.678;-122.174;2023-05-10T08:18:08;6.63;;;1.40;;
16304;SDS011;8261;47.678;-122.174;2023-05-10T08:20:39;5.33;;;1.83;;
16304;SDS011;8261;47.678;-122.174;2023-05-10T08:23:11;6.37;;;1.70;;
16304;SDS011;8261;47.678;-122.174;2023-05-10T08:25:45;4.57;;;1.50;;
16304;SDS011;8261;47.678;-122.174;2023-05-10T08:28:17;6.40;;;2.13;;
16304;SDS011;8261;47.678;-122.174;2023-05-10T08:30:49;6.53;;;1.77;;
16304;SDS011;8261;47.678;-122.174;2023-05-10T08:33:21;4.07;;;1.80;;
16304;SDS011;8261;47.678;-122.174;2023-05-10T08:35:52;3.60;;;1.70;;
16304;SDS011;8261;47.678;-122.174;2023-05-10T08:38:24;7.60;;;1.57;;
16304;SDS011;8261;47.678;-122.174;2023-05-10T08:40:58;6.63;;;1.70;;
16304;SDS011;8261;47.678;-122.174;2023-05-10T08:43:32;5.80;;;1.67;;
16304;SDS011;8261;47.678;-122.174;2023-05-10T08:46:09;7.47;;;1.57;;
16304;SDS011;8261;47.678;-122.174;2023-05-10T08:48:41;4.33;;;1.50;;
16304;SDS011;8261;47.678;-122.174;2023-05-10T08:51:15;5.60;;;1.50;;
16304;SDS011;8261;47.678;-122.174;2023-05-10T08:53:49;5.07;;;1.50;;
16304;SDS011;8261;47.678;-122.174;2023-05-10T08:56:22;6.07;;;1.93;;
16304;SDS011;8261;47.678;-122.174;2023-05-10T08:58:54;5.83;;;1.40;;
16304;SDS011;8261;47.678;-122.174;2023-05-10T09:01:28;4.07;;;1.57;;
16304;SDS011;8261;47.678;-122.174;2023-05-10T09:04:02;3.60;;;1.30;;
16304;SDS011;8261;47.678;-122.174;2023-05-10T09:06:34;5.73;;;1.70;;
16304;SDS011;8261;47.678;-122.174;2023-05-10T09:09:06;4.03;;;1.60;;
16304;SDS011;8261;47.678;-122.174;2023-05-10T09:11:41;6.67;;;2.07;;
16304;SDS011;8261;47.678;-122.174;2023-05-10T09:14:13;3.97;;;1.50;;
16304;SDS011;8261;47.678;-122.174;2023-05-10T09:16:45;7.03;;;1.40;;
16304;SDS011;8261;47.678;-122.174;2023-05-10T09:19:18;6.87;;;2.00;;
16304;SDS011;8261;47.678;-122.174;2023-05-10T09:21:49;6.67;;;2.13;;
16304;SDS011;8261;47.678;-122.174;2023-05-10T09:24:21;4.27;;;1.97;;
16304;SDS011;8261;47.678;-122.174;2023-05-10T09:26:58;5.17;;;1.80;;
16304;SDS011;8261;47.678;-122.174;2023-05-10T09:29:38;4.57;;;1.70;;
16304;SDS011;8261;47.678;-122.174;2023-05-10T09:32:11;4.57;;;1.60;;
16304;SDS011;8261;47.678;-122.174;2023-05-10T09:34:42;5.67;;;1.73;;
16304;SDS011;8261;47.678;-122.174;2023-05-10T09:37:13;4.87;;;1.50;;
16304;SDS011;8261;47.678;-122.174;2023-05-10T09:39:45;4.90;;;1.50;;
16304;SDS011;8261;47.678;-122.174;2023-05-10T09:42:19;6.40;;;2.07;;
16304;SDS011;8261;47.678;-122.174;2023-05-10T09:44:52;4.93;;;1.90;;
16304;SDS011;8261;47.678;-122.174;2023-05-10T09:47:26;7.50;;;2.23;;
16304;SDS011;8261;47.678;-122.174;2023-05-10T09:49:58;7.73;;;1.60;;
16304;SDS011;8261;47.678;-122.174;2023-05-10T09:52:45;3.90;;;1.20;;
16304;SDS011;8261;47.678;-122.174;2023-05-10T09:55:18;3.73;;;1.50;;
16304;SDS011;8261;47.678;-122.174;2023-05-10T09:57:58;4.40;;;1.80;;
16304;SDS011;8261;47.678;-122.174;2023-05-10T10:00:34;6.57;;;1.40;;
16304;SDS011;8261;47.678;-122.174;2023-05-10T10:03:06;5.53;;;1.90;;
16304;SDS011;8261;47.678;-122.174;2023-05-10T10:05:43;6.27;;;2.13;;
16304;SDS011;8261;47.678;-122.174;2023-05-10T10:08:15;5.70;;;1.60;;
16304;SDS011;8261;47.678;-122.174;2023-05-10T10:10:47;4.93;;;2.30;;
16304;SDS011;8261;47.678;-122.174;2023-05-10T10:13:21;4.93;;;1.87;;
16304;SDS011;8261;47.678;-122.174;2023-05-10T10:15:53;6.00;;;1.53;;
16304;SDS011;8261;47.678;-122.174;2023-05-10T10:18:26;8.13;;;1.87;;
16304;SDS011;8261;47.678;-122.174;2023-05-10T10:20:58;4.60;;;1.87;;
16304;SDS011;8261;47.678;-122.174;2023-05-10T10:23:30;5.00;;;2.10;;
16304;SDS011;8261;47.678;-122.174;2023-05-10T10:26:02;9.43;;;1.97;;
16304;SDS011;8261;47.678;-122.174;2023-05-10T10:28:38;5.30;;;2.07;;
16304;SDS011;8261;47.678;-122.174;2023-05-10T10:31:23;5.37;;;2.07;;
16304;SDS011;8261;47.678;-122.174;2023-05-10T10:34:04;3.97;;;1.53;;
16304;SDS011;8261;47.678;-122.174;2023-05-10T10:36:42;4.97;;;1.63;;
16304;SDS011;8261;47.678;-122.174;2023-05-10T10:39:15;4.00;;;1.90;;
16304;SDS011;8261;47.678;-122.174;2023-05-10T10:41:51;3.30;;;1.70;;
16304;SDS011;8261;47.678;-122.174;2023-05-10T10:47:22;6.10;;;1.90;;
16304;SDS011;8261;47.678;-122.174;2023-05-10T10:50:03;5.17;;;1.80;;
16304;SDS011;8261;47.678;-122.174;2023-05-10T10:52:37;4.53;;;1.80;;
16304;SDS011;8261;47.678;-122.174;2023-05-10T10:55:10;3.93;;;1.40;;
16304;SDS011;8261;47.678;-122.174;2023-05-10T10:57:43;5.03;;;1.60;;
16304;SDS011;8261;47.678;-122.174;2023-05-10T11:00:26;3.30;;;1.43;;
16304;SDS011;8261;47.678;-122.174;2023-05-10T11:02:59;10.07;;;2.30;;
16304;SDS011;8261;47.678;-122.174;2023-05-10T11:05:35;4.40;;;1.90;;
16304;SDS011;8261;47.678;-122.174;2023-05-10T11:08:09;6.57;;;1.80;;
16304;SDS011;8261;47.678;-122.174;2023-05-10T11:11:02;5.63;;;1.77;;
16304;SDS011;8261;47.678;-122.174;2023-05-10T11:13:48;2.90;;;1.60;;
16304;SDS011;8261;47.678;-122.174;2023-05-10T11:16:22;4.83;;;1.70;;
16304;SDS011;8261;47.678;-122.174;2023-05-10T11:18:58;5.13;;;1.90;;
16304;SDS011;8261;47.678;-122.174;2023-05-10T11:21:32;3.33;;;1.60;;
16304;SDS011;8261;47.678;-122.174;2023-05-10T11:24:09;6.30;;;1.93;;
16304;SDS011;8261;47.678;-122.174;2023-05-10T11:26:45;6.73;;;1.73;;
16304;SDS011;8261;47.678;-122.174;2023-05-10T11:29:19;4.57;;;2.00;;
16304;SDS011;8261;47.678;-122.174;2023-05-10T11:31:53;6.13;;;2.30;;
16304;SDS011;8261;47.678;-122.174;2023-05-10T11:34:28;6.37;;;2.03;;
16304;SDS011;8261;47.678;-122.174;2023-05-10T11:37:01;9.90;;;2.00;;
16304;SDS011;8261;47.678;-122.174;2023-05-10T11:39:32;8.20;;;2.00;;
16304;SDS011;8261;47.678;-122.174;2023-05-10T11:42:04;8.20;;;1.83;;
16304;SDS011;8261;47.678;-122.174;2023-05-10T11:44:37;6.37;;;1.87;;
16304;SDS011;8261;47.678;-122.174;2023-05-10T11:47:11;7.73;;;2.00;;
16304;SDS011;8261;47.678;-122.174;2023-05-10T11:49:44;4.30;;;1.80;;
16304;SDS011;8261;47.678;-122.174;2023-05-10T11:52:17;5.80;;;2.00;;
16304;SDS011;8261;47.678;-122.174;2023-05-10T11:54:53;5.07;;;1.53;;
16304;SDS011;8261;47.678;-122.174;2023-05-10T11:57:26;6.63;;;2.27;;
16304;SDS011;8261;47.678;-122.174;2023-05-10T11:59:59;4.77;;;1.90;;
16304;SDS011;8261;47.678;-122.174;2023-05-10T12:02:34;4.33;;;1.83;;
16304;SDS011;8261;47.678;-122.174;2023-05-10T12:05:06;7.17;;;2.00;;
16304;SDS011;8261;47.678;-122.174;2023-05-10T12:07:40;4.20;;;1.60;;
16304;SDS011;8261;47.678;-122.174;2023-05-10T12:10:12;4.03;;;1.70;;
16304;SDS011;8261;47.678;-122.174;2023-05-10T12:12:46;8.90;;;2.50;;
16304;SDS011;8261;47.678;-122.174;2023-05-10T12:15:18;7.63;;;2.17;;
16304;SDS011;8261;47.678;-122.174;2023-05-10T12:17:52;6.03;;;2.03;;
16304;SDS011;8261;47.678;-122.174;2023-05-10T12:20:26;4.70;;;2.00;;
16304;SDS011;8261;47.678;-122.174;2023-05-10T12:22:58;5.63;;;2.20;;
16304;SDS011;8261;47.678;-122.174;2023-05-10T12:25:31;9.40;;;2.00;;
16304;SDS011;8261;47.678;-122.174;2023-05-10T12:28:04;6.30;;;2.00;;
16304;SDS011;8261;47.678;-122.174;2023-05-10T12:30:36;5.97;;;2.00;;
16304;SDS011;8261;47.678;-122.174;2023-05-10T12:33:10;6.57;;;1.63;;
16304;SDS011;8261;47.678;-122.174;2023-05-10T12:35:45;3.60;;;1.70;;
16304;SDS011;8261;47.678;-122.174;2023-05-10T12:38:34;5.97;;;1.97;;
16304;SDS011;8261;47.678;-122.174;2023-05-10T12:41:07;6.33;;;2.07;;
16304;SDS011;8261;47.678;-122.174;2023-05-10T12:43:39;5.43;;;1.50;;
16304;SDS011;8261;47.678;-122.174;2023-05-10T12:46:11;3.37;;;1.70;;
16304;SDS011;8261;47.678;-122.174;2023-05-10T12:48:45;5.77;;;1.83;;
16304;SDS011;8261;47.678;-122.174;2023-05-10T12:51:35;5.90;;;2.13;;
16304;SDS011;8261;47.678;-122.174;2023-05-10T12:54:06;4.80;;;1.80;;
16304;SDS011;8261;47.678;-122.174;2023-05-10T12:56:38;5.10;;;1.47;;
16304;SDS011;8261;47.678;-122.174;2023-05-10T12:59:10;7.03;;;2.03;;
16304;SDS011;8261;47.678;-122.174;2023-05-10T13:01:41;5.10;;;2.07;;
16304;SDS011;8261;47.678;-122.174;2023-05-10T13:04:15;2.53;;;1.47;;
16304;SDS011;8261;47.678;-122.174;2023-05-10T13:06:46;5.50;;;2.20;;
16304;SDS011;8261;47.678;-122.174;2023-05-10T13:09:17;4.77;;;1.63;;
16304;SDS011;8261;47.678;-122.174;2023-05-10T13:11:49;6.03;;;1.80;;
16304;SDS011;8261;47.678;-122.174;2023-05-10T13:14:21;5.37;;;1.67;;
16304;SDS011;8261;47.678;-122.174;2023-05-10T13:16:52;5.63;;;1.90;;
16304;SDS011;8261;47.678;-122.174;2023-05-10T13:19:25;5.43;;;1.63;;
16304;SDS011;8261;47.678;-122.174;2023-05-10T13:21:57;6.27;;;2.40;;
16304;SDS011;8261;47.678;-122.174;2023-05-10T13:24:29;4.27;;;1.83;;
16304;SDS011;8261;47.678;-122.174;2023-05-10T13:27:01;7.60;;;2.10;;
16304;SDS011;8261;47.678;-122.174;2023-05-10T13:29:32;5.73;;;1.87;;
16304;SDS011;8261;47.678;-122.174;2023-05-10T13:32:04;7.13;;;1.97;;
16304;SDS011;8261;47.678;-122.174;2023-05-10T13:34:41;6.33;;;1.93;;
16304;SDS011;8261;47.678;-122.174;2023-05-10T13:37:13;4.97;;;1.90;;
16304;SDS011;8261;47.678;-122.174;2023-05-10T13:39:44;4.80;;;2.00;;
16304;SDS011;8261;47.678;-122.174;2023-05-10T13:42:17;5.77;;;2.00;;
16304;SDS011;8261;47.678;-122.174;2023-05-10T13:44:48;3.33;;;1.80;;
16304;SDS011;8261;47.678;-122.174;2023-05-10T13:47:20;4.83;;;1.80;;
16304;SDS011;8261;47.678;-122.174;2023-05-10T13:49:53;4.23;;;1.53;;
16304;SDS011;8261;47.678;-122.174;2023-05-10T13:52:26;6.80;;;2.00;;
16304;SDS011;8261;47.678;-122.174;2023-05-10T13:55:03;5.27;;;1.63;;
16304;SDS011;8261;47.678;-122.174;2023-05-10T13:57:35;4.77;;;1.93;;
16304;SDS011;8261;47.678;-122.174;2023-05-10T14:00:07;7.60;;;2.20;;
16304;SDS011;8261;47.678;-122.174;2023-05-10T14:02:39;5.30;;;1.83;;
16304;SDS011;8261;47.678;-122.174;2023-05-10T14:05:13;8.00;;;1.93;;
16304;SDS011;8261;47.678;-122.174;2023-05-10T14:07:51;5.60;;;2.00;;
16304;SDS011;8261;47.678;-122.174;2023-05-10T14:10:22;7.80;;;1.60;;
16304;SDS011;8261;47.678;-122.174;2023-05-10T14:12:54;5.67;;;1.83;;
16304;SDS011;8261;47.678;-122.174;2023-05-10T14:15:26;4.30;;;2.50;;
16304;SDS011;8261;47.678;-122.174;2023-05-10T14:17:57;3.93;;;1.83;;
16304;SDS011;8261;47.678;-122.174;2023-05-10T14:20:30;5.27;;;1.97;;
16304;SDS011;8261;47.678;-122.174;2023-05-10T14:23:01;5.27;;;2.00;;
16304;SDS011;8261;47.678;-122.174;2023-05-10T14:25:35;3.97;;;2.00;;
16304;SDS011;8261;47.678;-122.174;2023-05-10T14:28:06;3.40;;;1.80;;
16304;SDS011;8261;47.678;-122.174;2023-05-10T14:30:37;3.13;;;1.63;;
16304;SDS011;8261;47.678;-122.174;2023-05-10T14:33:08;4.53;;;1.90;;
16304;SDS011;8261;47.678;-122.174;2023-05-10T14:35:44;4.27;;;1.90;;
16304;SDS011;8261;47.678;-122.174;2023-05-10T14:38:15;3.53;;;1.70;;
16304;SDS011;8261;47.678;-122.174;2023-05-10T14:40:47;5.17;;;2.00;;
16304;SDS011;8261;47.678;-122.174;2023-05-10T14:43:18;5.00;;;1.97;;
16304;SDS011;8261;47.678;-122.174;2023-05-10T14:45:49;3.50;;;1.73;;
16304;SDS011;8261;47.678;-122.174;2023-05-10T14:48:21;2.80;;;1.20;;
16304;SDS011;8261;47.678;-122.174;2023-05-10T14:50:55;5.40;;;1.70;;
16304;SDS011;8261;47.678;-122.174;2023-05-10T14:53:26;3.77;;;1.57;;
16304;SDS011;8261;47.678;-122.174;2023-05-10T14:55:57;4.23;;;1.50;;
16304;SDS011;8261;47.678;-122.174;2023-05-10T14:58:29;2.90;;;1.60;;
16304;SDS011;8261;47.678;-122.174;2023-05-10T15:01:00;4.37;;;1.47;;
16304;SDS011;8261;47.678;-122.174;2023-05-10T15:03:31;3.33;;;1.40;;
16304;SDS011;8261;47.678;-122.174;2023-05-10T15:06:07;3.17;;;1.20;;